Aérodrome :
LOGIN :

S'inscrire | Disclaimer

   EN    FR    IT 

 










Légende :    VFR   VFR Marginal   IFR   IFR Intensif   IFR Très Intensif
Visi : 
Plafond : 
>= 8 km
>= 3000ft
5 à 8 km
1000 à 3000 ft
1500m à 5 km
500 à 1000 ft
800 à 1500m
200 à 500 ft
< 800m
< 200 ft
Symboles :   Orages  Brouillard  Fortes neiges  Fortes précipitations  Vent > 20 kt
SIGMETs :   Divers  Orages  Givrage  Turbulence  Onde Orograph.  Cendres Volcan.






- Altitude de l'aérodrome : 200 ft


EBBL - Klein Brogel AB

DERNIER METAR :
  • 210523Z 08003KT 1800 BKN003 BKN016 11/11 Q1011 RERA YLO YLO

METARs EXPIRÉS :
  • 210455Z VRB02KT 1600 RA BKN002 OVC016 11/11 Q1011 AMB AMB
  • 210448Z VRB02KT 1200 RA OVC002 11/11 Q1011 AMB AMB
  • 210425Z AUTO 08005KT 0500 FG OVC002/// 11/11 Q1011 RED
  • 210355Z AUTO 08005KT 0450 FG OVC002/// 11/11 Q1011 RED
  • 210325Z AUTO 08005KT 0350 FG OVC002/// 11/11 Q1011 RED
  • 210255Z AUTO 08006KT 0350 FG OVC002/// 11/11 Q1011 RED
  • 210225Z AUTO 06005KT 0350 FG OVC002/// 11/11 Q1011 RED

Prévision TAF périmée.



MET'MAP, la Météo Aéronautique d'un coup d'oeil ! - Copyright ORBIFLY Décembre 2007 - Disclaimer

ORBIFLY MET'MAP TEAM :

Programmation & Développement : Alexandra Zaïnal
Conception & Développement : Baudouin d'Aumeries
Co-Programmation & Développement : Marc-Olivier Méhu
Soutien technique & logistique : Manuel Goepfert

Contact : metmap@orbifly.com




SOURCES & CREDITS :

   NOAA